createdAt,value
2019-04-28T00:01:25.138Z,1.93
2019-04-28T00:06:38.448Z,1.93
2019-04-28T00:11:51.923Z,2.27
2019-04-28T00:17:11.101Z,2.00
2019-04-28T00:22:31.477Z,1.90
2019-04-28T00:27:44.577Z,1.80
2019-04-28T00:32:59.608Z,1.70
2019-04-28T00:38:14.732Z,1.90
2019-04-28T00:43:31.813Z,1.40
2019-04-28T00:54:18.077Z,1.80
2019-04-28T00:59:32.903Z,1.70
2019-04-28T01:04:46.201Z,1.47
2019-04-28T01:10:02.701Z,1.20
2019-04-28T01:15:49.685Z,1.47
2019-04-28T01:20:59.680Z,1.30
2019-04-28T01:26:14.795Z,1.22
2019-04-28T01:31:36.014Z,1.13
2019-04-28T01:36:51.599Z,1.53
2019-04-28T01:42:10.665Z,1.07
2019-04-28T01:47:23.680Z,1.30
2019-04-28T01:52:34.547Z,1.20
2019-04-28T01:57:51.633Z,1.03
2019-04-28T02:02:58.147Z,1.20
2019-04-28T02:08:10.832Z,1.10
2019-04-28T02:13:25.720Z,1.10
2019-04-28T02:18:43.665Z,0.77
2019-04-28T02:24:04.108Z,1.13
2019-04-28T02:29:20.170Z,0.98
2019-04-28T02:34:54.041Z,0.87
2019-04-28T02:40:10.341Z,0.90
2019-04-28T02:45:24.376Z,0.60
2019-04-28T02:51:01.805Z,1.00
2019-04-28T02:56:15.883Z,0.90
2019-04-28T03:01:27.495Z,0.97
2019-04-28T03:06:40.747Z,0.90
2019-04-28T03:11:56.672Z,1.00
2019-04-28T03:17:52.436Z,0.80
2019-04-28T03:23:09.102Z,1.10
2019-04-28T03:28:33.956Z,0.70
2019-04-28T03:33:50.449Z,1.00
2019-04-28T03:39:00.825Z,0.80
2019-04-28T03:44:14.650Z,0.83
2019-04-28T03:49:36.676Z,1.10
2019-04-28T03:54:53.224Z,0.70
2019-04-28T04:00:23.376Z,0.70
2019-04-28T04:05:40.756Z,0.97
2019-04-28T04:11:13.368Z,0.80
2019-04-28T04:16:50.303Z,0.83
2019-04-28T04:22:01.869Z,1.20
2019-04-28T04:27:15.968Z,1.10
2019-04-28T04:32:27.178Z,1.60
2019-04-28T04:37:43.579Z,1.27
2019-04-28T04:43:06.301Z,1.40
2019-04-28T04:48:26.305Z,1.40
2019-04-28T04:53:40.869Z,1.60
2019-04-28T04:58:50.674Z,1.77
2019-04-28T05:04:12.118Z,1.70
2019-04-28T05:09:19.755Z,1.47
2019-04-28T05:14:39.515Z,1.50
2019-04-28T05:19:54.401Z,1.90
2019-04-28T05:25:15.479Z,1.40
2019-04-28T05:30:34.771Z,1.70
2019-04-28T05:35:50.238Z,1.30
2019-04-28T05:41:00.301Z,1.60
2019-04-28T05:46:15.962Z,2.10
2019-04-28T05:51:30.383Z,2.20
2019-04-28T05:56:50.055Z,1.93
2019-04-28T06:02:10.344Z,1.73
2019-04-28T06:07:30.680Z,1.60
2019-04-28T06:12:41.963Z,2.00
2019-04-28T06:17:50.327Z,1.97
2019-04-28T06:23:08.408Z,1.60
2019-04-28T06:28:32.074Z,1.60
2019-04-28T06:33:47.941Z,1.80
2019-04-28T06:39:10.706Z,1.80
2019-04-28T06:44:36.518Z,1.50
2019-04-28T06:49:55.487Z,1.77
2019-04-28T06:55:15.524Z,1.57
2019-04-28T07:06:04.573Z,1.60
2019-04-28T07:11:14.001Z,1.60
2019-04-28T07:16:29.031Z,2.47
2019-04-28T07:21:56.063Z,1.80
2019-04-28T07:27:11.613Z,2.10
2019-04-28T07:32:26.921Z,2.10
2019-04-28T07:37:56.549Z,2.20
2019-04-28T07:43:07.136Z,2.30
2019-04-28T07:48:18.090Z,2.20
2019-04-28T07:53:52.507Z,2.27
2019-04-28T07:59:02.293Z,1.83
2019-04-28T08:04:39.160Z,2.23
2019-04-28T08:09:53.326Z,1.73
2019-04-28T08:15:07.055Z,2.40
2019-04-28T08:20:27.853Z,1.60
2019-04-28T08:25:52.992Z,1.80
2019-04-28T08:31:23.794Z,2.23
2019-04-28T08:36:34.423Z,2.30
2019-04-28T08:42:04.577Z,2.07
2019-04-28T08:47:21.077Z,2.20
2019-04-28T08:52:31.341Z,2.00
2019-04-28T08:57:43.342Z,2.27
2019-04-28T09:03:06.747Z,2.33
2019-04-28T09:08:22.698Z,2.57
2019-04-28T09:13:56.778Z,2.85
2019-04-28T09:19:08.370Z,2.97
2019-04-28T09:24:24.227Z,2.98
2019-04-28T09:29:39.522Z,2.77
2019-04-28T09:34:57.932Z,2.90
2019-04-28T09:40:17.787Z,2.77
2019-04-28T09:45:33.111Z,3.10
2019-04-28T09:51:03.980Z,3.17
2019-04-28T09:56:18.925Z,3.20
2019-04-28T10:01:29.329Z,3.73
2019-04-28T10:06:43.628Z,3.63
2019-04-28T10:11:54.690Z,3.30
2019-04-28T10:17:04.776Z,3.53
2019-04-28T10:22:16.260Z,3.57
2019-04-28T10:27:29.489Z,3.33
2019-04-28T10:33:02.743Z,3.30
2019-04-28T10:38:21.699Z,3.53
2019-04-28T10:43:38.575Z,3.00
2019-04-28T10:48:54.120Z,2.97
2019-04-28T10:54:03.629Z,2.97
2019-04-28T10:59:17.866Z,2.53
2019-04-28T11:05:08.730Z,2.40
2019-04-28T11:10:20.032Z,2.17
2019-04-28T11:15:34.076Z,1.73
2019-04-28T11:20:46.281Z,1.83
2019-04-28T11:26:25.820Z,1.70
2019-04-28T11:31:49.098Z,1.53
2019-04-28T11:36:59.977Z,1.50
2019-04-28T11:42:14.046Z,1.10
2019-04-28T11:47:24.967Z,1.23
2019-04-28T11:52:35.771Z,1.20
2019-04-28T11:57:46.961Z,1.20
2019-04-28T12:03:00.239Z,1.27
2019-04-28T12:08:13.357Z,1.17
2019-04-28T12:13:58.473Z,1.37
2019-04-28T12:19:37.596Z,1.20
2019-04-28T12:24:55.845Z,1.33
2019-04-28T12:30:09.562Z,1.03
2019-04-28T12:35:19.725Z,1.20
2019-04-28T12:40:32.906Z,1.20
2019-04-28T12:45:44.364Z,1.40
2019-04-28T12:51:18.572Z,1.70
2019-04-28T12:56:29.092Z,1.37
2019-04-28T13:02:05.792Z,1.60
2019-04-28T13:07:18.896Z,1.10
2019-04-28T13:12:40.154Z,1.20
2019-04-28T13:17:52.457Z,1.13
2019-04-28T13:23:01.530Z,1.20
2019-04-28T13:28:14.890Z,1.17
2019-04-28T13:33:28.975Z,1.10
2019-04-28T13:39:02.255Z,1.03
2019-04-28T13:44:15.702Z,1.37
2019-04-28T13:50:03.683Z,1.13
2019-04-28T13:55:30.032Z,1.43
2019-04-28T14:01:00.239Z,1.37
2019-04-28T14:06:11.784Z,1.13
2019-04-28T14:11:26.887Z,1.12
2019-04-28T14:16:40.262Z,1.40
2019-04-28T14:22:19.796Z,1.10
2019-04-28T14:27:37.797Z,1.30
2019-04-28T14:32:52.653Z,1.10
2019-04-28T14:38:28.146Z,1.35
2019-04-28T14:43:55.500Z,1.27
2019-04-28T14:49:07.090Z,1.30
2019-04-28T14:54:20.571Z,1.37
2019-04-28T14:59:48.690Z,1.70
2019-04-28T15:05:22.441Z,1.60
2019-04-28T15:11:11.835Z,1.60
2019-04-28T15:16:54.443Z,2.37
